sensor_id;sensor_type;location;lat;lon;timestamp;temperature;humidity
21787;DHT22;11055;50.870;4.316;2023-04-15T00:00:50;11.60;99.90
21787;DHT22;11055;50.870;4.316;2023-04-15T00:03:16;11.50;99.90
21787;DHT22;11055;50.870;4.316;2023-04-15T00:05:43;11.70;99.90
21787;DHT22;11055;50.870;4.316;2023-04-15T00:08:09;11.90;99.90
21787;DHT22;11055;50.870;4.316;2023-04-15T00:10:34;12.10;99.90
21787;DHT22;11055;50.870;4.316;2023-04-15T00:13:00;12.30;99.90
21787;DHT22;11055;50.870;4.316;2023-04-15T00:15:27;12.50;99.90
21787;DHT22;11055;50.870;4.316;2023-04-15T00:17:52;12.40;99.90
21787;DHT22;11055;50.870;4.316;2023-04-15T00:20:18;12.20;99.90
21787;DHT22;11055;50.870;4.316;2023-04-15T00:22:44;12.20;99.90
21787;DHT22;11055;50.870;4.316;2023-04-15T00:25:10;12.40;99.90
21787;DHT22;11055;50.870;4.316;2023-04-15T00:27:36;12.60;99.90
21787;DHT22;11055;50.870;4.316;2023-04-15T00:30:03;12.60;99.90
21787;DHT22;11055;50.870;4.316;2023-04-15T00:32:29;12.20;99.90
21787;DHT22;11055;50.870;4.316;2023-04-15T00:34:55;12.00;99.90
21787;DHT22;11055;50.870;4.316;2023-04-15T00:37:21;11.90;99.90
21787;DHT22;11055;50.870;4.316;2023-04-15T00:39:48;11.90;99.90
21787;DHT22;11055;50.870;4.316;2023-04-15T00:42:14;12.00;99.90
21787;DHT22;11055;50.870;4.316;2023-04-15T00:44:40;12.10;99.90
21787;DHT22;11055;50.870;4.316;2023-04-15T00:47:05;12.10;99.90
21787;DHT22;11055;50.870;4.316;2023-04-15T00:49:31;11.80;99.90
21787;DHT22;11055;50.870;4.316;2023-04-15T00:51:57;11.80;99.90
21787;DHT22;11055;50.870;4.316;2023-04-15T00:54:23;11.90;99.90
21787;DHT22;11055;50.870;4.316;2023-04-15T00:56:48;11.80;99.90
21787;DHT22;11055;50.870;4.316;2023-04-15T00:59:14;11.50;99.90
21787;DHT22;11055;50.870;4.316;2023-04-15T01:01:42;11.40;99.90
21787;DHT22;11055;50.870;4.316;2023-04-15T01:04:10;11.60;99.90
21787;DHT22;11055;50.870;4.316;2023-04-15T01:06:36;11.70;99.90
21787;DHT22;11055;50.870;4.316;2023-04-15T01:09:02;11.90;99.90
21787;DHT22;11055;50.870;4.316;2023-04-15T01:11:28;12.10;99.90
21787;DHT22;11055;50.870;4.316;2023-04-15T01:13:55;12.00;99.90
21787;DHT22;11055;50.870;4.316;2023-04-15T01:16:23;12.10;99.90
21787;DHT22;11055;50.870;4.316;2023-04-15T01:18:48;12.20;99.90
21787;DHT22;11055;50.870;4.316;2023-04-15T01:21:14;12.00;99.90
21787;DHT22;11055;50.870;4.316;2023-04-15T01:23:40;11.70;99.90
21787;DHT22;11055;50.870;4.316;2023-04-15T01:26:06;11.80;99.90
21787;DHT22;11055;50.870;4.316;2023-04-15T01:28:33;11.80;99.90
21787;DHT22;11055;50.870;4.316;2023-04-15T01:31:13;11.60;99.90
21787;DHT22;11055;50.870;4.316;2023-04-15T01:33:41;11.30;99.90
21787;DHT22;11055;50.870;4.316;2023-04-15T01:36:08;11.20;99.90
21787;DHT22;11055;50.870;4.316;2023-04-15T01:38:35;11.20;99.90
21787;DHT22;11055;50.870;4.316;2023-04-15T01:41:01;11.30;99.90
21787;DHT22;11055;50.870;4.316;2023-04-15T01:43:28;11.30;99.90
21787;DHT22;11055;50.870;4.316;2023-04-15T01:45:54;11.20;99.90
21787;DHT22;11055;50.870;4.316;2023-04-15T01:48:21;11.30;99.90
21787;DHT22;11055;50.870;4.316;2023-04-15T01:50:47;11.30;99.90
21787;DHT22;11055;50.870;4.316;2023-04-15T01:53:13;11.30;99.90
21787;DHT22;11055;50.870;4.316;2023-04-15T01:55:38;11.30;99.90
21787;DHT22;11055;50.870;4.316;2023-04-15T01:58:04;11.20;99.90
21787;DHT22;11055;50.870;4.316;2023-04-15T02:00:30;11.40;99.90
21787;DHT22;11055;50.870;4.316;2023-04-15T02:02:57;11.50;99.90
21787;DHT22;11055;50.870;4.316;2023-04-15T02:05:24;11.50;99.90
21787;DHT22;11055;50.870;4.316;2023-04-15T02:07:50;11.60;99.90
21787;DHT22;11055;50.870;4.316;2023-04-15T02:10:15;11.80;99.90
21787;DHT22;11055;50.870;4.316;2023-04-15T02:12:41;12.00;99.90
21787;DHT22;11055;50.870;4.316;2023-04-15T02:15:08;12.20;99.90
21787;DHT22;11055;50.870;4.316;2023-04-15T02:17:35;12.30;99.90
21787;DHT22;11055;50.870;4.316;2023-04-15T02:20:02;12.30;99.90
21787;DHT22;11055;50.870;4.316;2023-04-15T02:22:30;12.10;99.90
21787;DHT22;11055;50.870;4.316;2023-04-15T02:24:56;12.10;99.90
21787;DHT22;11055;50.870;4.316;2023-04-15T02:27:21;12.10;99.90
21787;DHT22;11055;50.870;4.316;2023-04-15T02:29:47;12.30;99.90
21787;DHT22;11055;50.870;4.316;2023-04-15T02:32:15;12.30;99.90
21787;DHT22;11055;50.870;4.316;2023-04-15T02:34:41;12.40;99.90
21787;DHT22;11055;50.870;4.316;2023-04-15T02:37:08;12.30;99.90
21787;DHT22;11055;50.870;4.316;2023-04-15T02:39:34;12.20;99.90
21787;DHT22;11055;50.870;4.316;2023-04-15T02:42:00;12.30;99.90
21787;DHT22;11055;50.870;4.316;2023-04-15T02:44:26;12.50;99.90
21787;DHT22;11055;50.870;4.316;2023-04-15T02:46:52;12.30;99.90
21787;DHT22;11055;50.870;4.316;2023-04-15T02:49:20;12.30;99.90
21787;DHT22;11055;50.870;4.316;2023-04-15T02:51:46;12.30;99.90
21787;DHT22;11055;50.870;4.316;2023-04-15T02:54:15;12.30;99.90
21787;DHT22;11055;50.870;4.316;2023-04-15T02:56:41;12.30;99.90
21787;DHT22;11055;50.870;4.316;2023-04-15T02:59:06;12.20;99.90
21787;DHT22;11055;50.870;4.316;2023-04-15T03:01:32;12.00;99.90
21787;DHT22;11055;50.870;4.316;2023-04-15T03:03:58;11.80;99.90
21787;DHT22;11055;50.870;4.316;2023-04-15T03:06:23;11.70;99.90
21787;DHT22;11055;50.870;4.316;2023-04-15T03:08:49;11.50;99.90
21787;DHT22;11055;50.870;4.316;2023-04-15T03:11:15;11.40;99.90
21787;DHT22;11055;50.870;4.316;2023-04-15T03:13:41;11.50;99.90
21787;DHT22;11055;50.870;4.316;2023-04-15T03:16:08;11.50;99.90
21787;DHT22;11055;50.870;4.316;2023-04-15T03:18:33;11.60;99.90
21787;DHT22;11055;50.870;4.316;2023-04-15T03:20:59;11.70;99.90
21787;DHT22;11055;50.870;4.316;2023-04-15T03:23:25;11.80;99.90
21787;DHT22;11055;50.870;4.316;2023-04-15T03:25:51;11.90;99.90
21787;DHT22;11055;50.870;4.316;2023-04-15T03:28:20;12.00;99.90
21787;DHT22;11055;50.870;4.316;2023-04-15T03:30:46;12.00;99.90
21787;DHT22;11055;50.870;4.316;2023-04-15T03:33:11;11.80;99.90
21787;DHT22;11055;50.870;4.316;2023-04-15T03:35:37;11.80;99.90
21787;DHT22;11055;50.870;4.316;2023-04-15T03:38:04;11.60;99.90
21787;DHT22;11055;50.870;4.316;2023-04-15T03:40:30;11.40;99.90
21787;DHT22;11055;50.870;4.316;2023-04-15T03:42:55;11.40;99.90
21787;DHT22;11055;50.870;4.316;2023-04-15T03:45:21;11.40;99.90
21787;DHT22;11055;50.870;4.316;2023-04-15T03:47:46;11.20;99.90
21787;DHT22;11055;50.870;4.316;2023-04-15T03:50:14;11.30;99.90
21787;DHT22;11055;50.870;4.316;2023-04-15T03:52:40;11.30;99.90
21787;DHT22;11055;50.870;4.316;2023-04-15T03:55:06;11.30;99.90
21787;DHT22;11055;50.870;4.316;2023-04-15T03:57:33;11.30;99.90
21787;DHT22;11055;50.870;4.316;2023-04-15T04:00:03;11.40;99.90
21787;DHT22;11055;50.870;4.316;2023-04-15T04:02:29;11.50;99.90
21787;DHT22;11055;50.870;4.316;2023-04-15T04:04:55;11.40;99.90
21787;DHT22;11055;50.870;4.316;2023-04-15T04:07:22;11.30;99.90
21787;DHT22;11055;50.870;4.316;2023-04-15T04:09:48;11.30;99.90
21787;DHT22;11055;50.870;4.316;2023-04-15T04:12:14;11.30;99.90
21787;DHT22;11055;50.870;4.316;2023-04-15T04:14:40;11.40;99.90
21787;DHT22;11055;50.870;4.316;2023-04-15T04:17:06;11.50;99.90
21787;DHT22;11055;50.870;4.316;2023-04-15T04:19:31;11.30;99.90
21787;DHT22;11055;50.870;4.316;2023-04-15T04:21:57;11.10;99.90
21787;DHT22;11055;50.870;4.316;2023-04-15T04:24:23;11.00;99.90
21787;DHT22;11055;50.870;4.316;2023-04-15T04:26:48;10.80;99.90
21787;DHT22;11055;50.870;4.316;2023-04-15T04:29:14;10.70;99.90
21787;DHT22;11055;50.870;4.316;2023-04-15T04:31:40;10.70;99.90
21787;DHT22;11055;50.870;4.316;2023-04-15T04:34:05;10.80;99.90
21787;DHT22;11055;50.870;4.316;2023-04-15T04:36:32;10.80;99.90
21787;DHT22;11055;50.870;4.316;2023-04-15T04:38:57;10.80;99.90
21787;DHT22;11055;50.870;4.316;2023-04-15T04:41:23;10.60;99.90
21787;DHT22;11055;50.870;4.316;2023-04-15T04:43:48;10.70;99.90
21787;DHT22;11055;50.870;4.316;2023-04-15T04:46:14;10.80;99.90
21787;DHT22;11055;50.870;4.316;2023-04-15T04:48:40;10.40;99.90
21787;DHT22;11055;50.870;4.316;2023-04-15T04:51:06;10.20;99.90
21787;DHT22;11055;50.870;4.316;2023-04-15T04:53:32;10.20;99.90
21787;DHT22;11055;50.870;4.316;2023-04-15T04:55:58;10.30;99.90
21787;DHT22;11055;50.870;4.316;2023-04-15T04:58:24;10.40;99.90
21787;DHT22;11055;50.870;4.316;2023-04-15T05:00:49;10.70;99.90
21787;DHT22;11055;50.870;4.316;2023-04-15T05:03:16;10.70;99.90
21787;DHT22;11055;50.870;4.316;2023-04-15T05:05:41;10.90;99.90
21787;DHT22;11055;50.870;4.316;2023-04-15T05:08:07;11.00;99.90
21787;DHT22;11055;50.870;4.316;2023-04-15T05:10:33;11.00;99.90
21787;DHT22;11055;50.870;4.316;2023-04-15T05:12:59;11.10;99.90
21787;DHT22;11055;50.870;4.316;2023-04-15T05:15:24;11.30;99.90
21787;DHT22;11055;50.870;4.316;2023-04-15T05:17:50;11.40;99.90
21787;DHT22;11055;50.870;4.316;2023-04-15T05:20:16;11.30;99.90
21787;DHT22;11055;50.870;4.316;2023-04-15T05:22:42;11.30;99.90
21787;DHT22;11055;50.870;4.316;2023-04-15T05:25:08;11.30;99.90
21787;DHT22;11055;50.870;4.316;2023-04-15T05:27:34;11.40;99.90
21787;DHT22;11055;50.870;4.316;2023-04-15T05:30:00;11.40;99.90
21787;DHT22;11055;50.870;4.316;2023-04-15T05:32:25;11.30;99.90
21787;DHT22;11055;50.870;4.316;2023-04-15T05:34:51;11.50;99.90
21787;DHT22;11055;50.870;4.316;2023-04-15T05:37:17;11.60;99.90
21787;DHT22;11055;50.870;4.316;2023-04-15T05:39:45;11.40;99.90
21787;DHT22;11055;50.870;4.316;2023-04-15T05:42:11;11.40;99.90
21787;DHT22;11055;50.870;4.316;2023-04-15T05:44:36;11.30;99.90
21787;DHT22;11055;50.870;4.316;2023-04-15T05:47:02;11.10;99.90
21787;DHT22;11055;50.870;4.316;2023-04-15T05:49:28;11.00;99.90
21787;DHT22;11055;50.870;4.316;2023-04-15T05:51:54;11.20;99.90
21787;DHT22;11055;50.870;4.316;2023-04-15T05:54:20;11.30;99.90
21787;DHT22;11055;50.870;4.316;2023-04-15T05:56:47;11.30;99.90
21787;DHT22;11055;50.870;4.316;2023-04-15T05:59:13;11.40;99.90
21787;DHT22;11055;50.870;4.316;2023-04-15T06:01:39;11.30;99.90
21787;DHT22;11055;50.870;4.316;2023-04-15T06:04:04;11.00;99.90
21787;DHT22;11055;50.870;4.316;2023-04-15T06:06:30;10.90;99.90
21787;DHT22;11055;50.870;4.316;2023-04-15T06:08:57;11.00;99.90
21787;DHT22;11055;50.870;4.316;2023-04-15T06:11:22;11.10;99.90
21787;DHT22;11055;50.870;4.316;2023-04-15T06:13:48;11.20;99.90
21787;DHT22;11055;50.870;4.316;2023-04-15T06:16:14;11.20;99.90
21787;DHT22;11055;50.870;4.316;2023-04-15T06:18:40;11.10;99.90
21787;DHT22;11055;50.870;4.316;2023-04-15T06:21:06;11.10;99.90
21787;DHT22;11055;50.870;4.316;2023-04-15T06:23:34;11.20;99.90
21787;DHT22;11055;50.870;4.316;2023-04-15T06:26:01;11.30;99.90
21787;DHT22;11055;50.870;4.316;2023-04-15T06:28:27;11.60;99.90
21787;DHT22;11055;50.870;4.316;2023-04-15T06:30:53;11.60;99.90
21787;DHT22;11055;50.870;4.316;2023-04-15T06:33:19;11.80;99.90
21787;DHT22;11055;50.870;4.316;2023-04-15T06:35:45;12.00;99.90
21787;DHT22;11055;50.870;4.316;2023-04-15T06:38:11;12.20;99.90
21787;DHT22;11055;50.870;4.316;2023-04-15T06:40:37;12.20;99.90
21787;DHT22;11055;50.870;4.316;2023-04-15T06:43:03;12.20;99.90
21787;DHT22;11055;50.870;4.316;2023-04-15T06:45:29;12.40;99.90
21787;DHT22;11055;50.870;4.316;2023-04-15T06:47:55;12.30;99.90
21787;DHT22;11055;50.870;4.316;2023-04-15T06:50:21;12.40;99.90
21787;DHT22;11055;50.870;4.316;2023-04-15T06:52:47;12.20;99.90
21787;DHT22;11055;50.870;4.316;2023-04-15T06:55:13;12.20;99.90
21787;DHT22;11055;50.870;4.316;2023-04-15T06:57:39;12.00;99.90
21787;DHT22;11055;50.870;4.316;2023-04-15T07:00:05;12.20;99.90
21787;DHT22;11055;50.870;4.316;2023-04-15T07:02:32;12.30;99.90
21787;DHT22;11055;50.870;4.316;2023-04-15T07:04:57;12.40;99.90
21787;DHT22;11055;50.870;4.316;2023-04-15T07:07:23;12.50;99.90
21787;DHT22;11055;50.870;4.316;2023-04-15T07:09:50;12.80;99.90
21787;DHT22;11055;50.870;4.316;2023-04-15T07:12:16;13.00;99.90
21787;DHT22;11055;50.870;4.316;2023-04-15T07:14:42;13.00;99.90
21787;DHT22;11055;50.870;4.316;2023-04-15T07:17:08;13.00;99.90
21787;DHT22;11055;50.870;4.316;2023-04-15T07:19:34;13.20;99.90
21787;DHT22;11055;50.870;4.316;2023-04-15T07:22:00;13.40;99.90
21787;DHT22;11055;50.870;4.316;2023-04-15T07:24:26;13.60;99.90
21787;DHT22;11055;50.870;4.316;2023-04-15T07:26:55;14.10;99.90
21787;DHT22;11055;50.870;4.316;2023-04-15T07:29:24;14.50;99.90
21787;DHT22;11055;50.870;4.316;2023-04-15T07:31:49;14.90;99.90
21787;DHT22;11055;50.870;4.316;2023-04-15T07:34:16;15.00;99.90
21787;DHT22;11055;50.870;4.316;2023-04-15T07:36:42;15.10;99.90
21787;DHT22;11055;50.870;4.316;2023-04-15T07:39:07;15.70;99.90
21787;DHT22;11055;50.870;4.316;2023-04-15T07:41:33;16.10;99.90
21787;DHT22;11055;50.870;4.316;2023-04-15T07:43:59;16.10;99.90
21787;DHT22;11055;50.870;4.316;2023-04-15T07:46:24;16.20;99.90
21787;DHT22;11055;50.870;4.316;2023-04-15T07:48:52;15.70;99.90
21787;DHT22;11055;50.870;4.316;2023-04-15T07:51:18;15.40;99.90
21787;DHT22;11055;50.870;4.316;2023-04-15T07:53:45;16.00;99.90
21787;DHT22;11055;50.870;4.316;2023-04-15T07:56:11;15.60;99.90
21787;DHT22;11055;50.870;4.316;2023-04-15T07:58:37;14.80;99.90
21787;DHT22;11055;50.870;4.316;2023-04-15T08:01:03;14.70;99.90
21787;DHT22;11055;50.870;4.316;2023-04-15T08:03:29;14.20;99.90
21787;DHT22;11055;50.870;4.316;2023-04-15T08:05:55;13.90;99.90
21787;DHT22;11055;50.870;4.316;2023-04-15T08:08:20;13.60;99.90
21787;DHT22;11055;50.870;4.316;2023-04-15T08:10:46;13.60;99.90
21787;DHT22;11055;50.870;4.316;2023-04-15T08:13:12;14.00;99.90
21787;DHT22;11055;50.870;4.316;2023-04-15T08:15:37;13.60;99.90
21787;DHT22;11055;50.870;4.316;2023-04-15T08:18:03;13.50;99.90
21787;DHT22;11055;50.870;4.316;2023-04-15T08:20:29;13.50;99.90
21787;DHT22;11055;50.870;4.316;2023-04-15T08:22:55;13.50;99.90
21787;DHT22;11055;50.870;4.316;2023-04-15T08:25:20;13.50;99.90
21787;DHT22;11055;50.870;4.316;2023-04-15T08:27:46;13.60;99.90
21787;DHT22;11055;50.870;4.316;2023-04-15T08:30:12;13.70;99.90
21787;DHT22;11055;50.870;4.316;2023-04-15T08:32:38;13.80;99.90
21787;DHT22;11055;50.870;4.316;2023-04-15T08:35:04;14.00;99.90
21787;DHT22;11055;50.870;4.316;2023-04-15T08:37:30;14.30;99.90
21787;DHT22;11055;50.870;4.316;2023-04-15T08:39:56;14.30;99.90
21787;DHT22;11055;50.870;4.316;2023-04-15T08:42:35;14.10;99.90
21787;DHT22;11055;50.870;4.316;2023-04-15T08:45:03;14.00;99.90
21787;DHT22;11055;50.870;4.316;2023-04-15T08:47:30;13.90;99.90
21787;DHT22;11055;50.870;4.316;2023-04-15T08:49:58;13.90;99.90
21787;DHT22;11055;50.870;4.316;2023-04-15T08:52:29;14.10;99.90
21787;DHT22;11055;50.870;4.316;2023-04-15T08:54:56;14.50;99.90
21787;DHT22;11055;50.870;4.316;2023-04-15T08:57:27;14.80;99.90
21787;DHT22;11055;50.870;4.316;2023-04-15T08:59:55;14.40;99.90
21787;DHT22;11055;50.870;4.316;2023-04-15T09:02:25;14.20;99.90
21787;DHT22;11055;50.870;4.316;2023-04-15T09:04:52;14.20;99.90
21787;DHT22;11055;50.870;4.316;2023-04-15T09:07:18;14.20;99.90
21787;DHT22;11055;50.870;4.316;2023-04-15T09:09:43;14.40;99.90
21787;DHT22;11055;50.870;4.316;2023-04-15T09:12:10;14.60;99.90
21787;DHT22;11055;50.870;4.316;2023-04-15T09:14:36;14.70;99.90
21787;DHT22;11055;50.870;4.316;2023-04-15T09:17:04;14.80;99.90
21787;DHT22;11055;50.870;4.316;2023-04-15T09:19:30;14.90;99.90
21787;DHT22;11055;50.870;4.316;2023-04-15T09:21:58;15.00;99.90
21787;DHT22;11055;50.870;4.316;2023-04-15T09:24:27;14.90;99.90
21787;DHT22;11055;50.870;4.316;2023-04-15T09:26:59;14.70;99.90
21787;DHT22;11055;50.870;4.316;2023-04-15T09:29:25;14.60;99.90
21787;DHT22;11055;50.870;4.316;2023-04-15T09:31:53;14.70;99.90
21787;DHT22;11055;50.870;4.316;2023-04-15T09:34:19;14.80;99.90
21787;DHT22;11055;50.870;4.316;2023-04-15T09:39:12;14.80;99.90
21787;DHT22;11055;50.870;4.316;2023-04-15T09:41:37;15.10;99.90
21787;DHT22;11055;50.870;4.316;2023-04-15T09:44:03;14.90;99.90
21787;DHT22;11055;50.870;4.316;2023-04-15T09:46:42;15.00;99.90
21787;DHT22;11055;50.870;4.316;2023-04-15T09:49:10;15.10;99.90
21787;DHT22;11055;50.870;4.316;2023-04-15T09:51:36;15.10;99.90
21787;DHT22;11055;50.870;4.316;2023-04-15T09:54:02;15.30;99.90
21787;DHT22;11055;50.870;4.316;2023-04-15T09:56:36;15.20;99.90
21787;DHT22;11055;50.870;4.316;2023-04-15T09:59:04;15.30;99.90
21787;DHT22;11055;50.870;4.316;2023-04-15T10:01:30;15.30;99.90
21787;DHT22;11055;50.870;4.316;2023-04-15T10:03:57;15.40;99.90
21787;DHT22;11055;50.870;4.316;2023-04-15T10:06:26;15.50;99.90
21787;DHT22;11055;50.870;4.316;2023-04-15T10:08:52;15.50;99.90
21787;DHT22;11055;50.870;4.316;2023-04-15T10:11:19;15.90;99.90
21787;DHT22;11055;50.870;4.316;2023-04-15T10:13:46;16.70;99.90
21787;DHT22;11055;50.870;4.316;2023-04-15T10:16:14;17.80;99.90
21787;DHT22;11055;50.870;4.316;2023-04-15T10:18:46;18.90;98.90
21787;DHT22;11055;50.870;4.316;2023-04-15T10:21:13;20.40;94.00
21787;DHT22;11055;50.870;4.316;2023-04-15T10:23:44;20.70;90.40
21787;DHT22;11055;50.870;4.316;2023-04-15T10:26:10;20.30;89.70
21787;DHT22;11055;50.870;4.316;2023-04-15T10:28:37;21.20;87.10
21787;DHT22;11055;50.870;4.316;2023-04-15T10:31:04;21.90;82.90
21787;DHT22;11055;50.870;4.316;2023-04-15T10:33:30;22.30;77.60
21787;DHT22;11055;50.870;4.316;2023-04-15T10:35:56;22.30;74.00
21787;DHT22;11055;50.870;4.316;2023-04-15T10:38:38;22.70;71.60
21787;DHT22;11055;50.870;4.316;2023-04-15T10:41:20;23.50;68.30
21787;DHT22;11055;50.870;4.316;2023-04-15T10:46:37;23.90;60.20
21787;DHT22;11055;50.870;4.316;2023-04-15T10:49:11;24.00;57.60
21787;DHT22;11055;50.870;4.316;2023-04-15T10:51:40;24.40;54.40
21787;DHT22;11055;50.870;4.316;2023-04-15T10:54:31;24.60;55.10
21787;DHT22;11055;50.870;4.316;2023-04-15T10:59:28;26.20;53.10
21787;DHT22;11055;50.870;4.316;2023-04-15T11:01:56;26.80;48.90
21787;DHT22;11055;50.870;4.316;2023-04-15T11:04:53;27.60;47.40
21787;DHT22;11055;50.870;4.316;2023-04-15T11:12:43;29.90;39.90
21787;DHT22;11055;50.870;4.316;2023-04-15T11:15:35;32.20;36.00
21787;DHT22;11055;50.870;4.316;2023-04-15T11:18:19;30.40;33.40
21787;DHT22;11055;50.870;4.316;2023-04-15T11:20:59;30.40;33.50
21787;DHT22;11055;50.870;4.316;2023-04-15T11:23:40;32.20;33.10
21787;DHT22;11055;50.870;4.316;2023-04-15T11:26:11;34.10;30.50
21787;DHT22;11055;50.870;4.316;2023-04-15T11:28:42;33.00;29.90
21787;DHT22;11055;50.870;4.316;2023-04-15T11:31:16;34.60;29.40
21787;DHT22;11055;50.870;4.316;2023-04-15T11:33:59;34.70;28.00
21787;DHT22;11055;50.870;4.316;2023-04-15T11:36:28;34.30;28.30
21787;DHT22;11055;50.870;4.316;2023-04-15T11:38:54;35.60;27.20
21787;DHT22;11055;50.870;4.316;2023-04-15T11:41:22;37.10;26.30
21787;DHT22;11055;50.870;4.316;2023-04-15T11:43:49;35.40;24.20
21787;DHT22;11055;50.870;4.316;2023-04-15T11:46:14;34.80;23.80
21787;DHT22;11055;50.870;4.316;2023-04-15T11:48:45;34.80;23.40
21787;DHT22;11055;50.870;4.316;2023-04-15T11:51:11;35.90;24.10
21787;DHT22;11055;50.870;4.316;2023-04-15T11:53:48;36.70;23.50
21787;DHT22;11055;50.870;4.316;2023-04-15T11:56:23;37.80;23.20
21787;DHT22;11055;50.870;4.316;2023-04-15T11:58:56;38.00;21.00
21787;DHT22;11055;50.870;4.316;2023-04-15T12:01:31;35.80;21.10
21787;DHT22;11055;50.870;4.316;2023-04-15T12:03:57;35.50;20.70
21787;DHT22;11055;50.870;4.316;2023-04-15T12:06:24;34.40;22.80
21787;DHT22;11055;50.870;4.316;2023-04-15T12:16:56;34.80;25.30
21787;DHT22;11055;50.870;4.316;2023-04-15T12:19:25;37.70;23.60
21787;DHT22;11055;50.870;4.316;2023-04-15T12:21:53;38.50;21.00
21787;DHT22;11055;50.870;4.316;2023-04-15T12:24:21;37.00;22.20
21787;DHT22;11055;50.870;4.316;2023-04-15T12:26:49;35.90;22.40
21787;DHT22;11055;50.870;4.316;2023-04-15T12:29:16;38.30;21.70
21787;DHT22;11055;50.870;4.316;2023-04-15T12:31:52;37.10;21.20
21787;DHT22;11055;50.870;4.316;2023-04-15T12:34:28;38.90;21.40
21787;DHT22;11055;50.870;4.316;2023-04-15T12:36:55;40.90;20.30
21787;DHT22;11055;50.870;4.316;2023-04-15T12:39:25;43.30;19.30
21787;DHT22;11055;50.870;4.316;2023-04-15T12:41:51;43.40;18.60
21787;DHT22;11055;50.870;4.316;2023-04-15T12:44:17;41.80;19.10
21787;DHT22;11055;50.870;4.316;2023-04-15T12:46:43;41.40;19.60
21787;DHT22;11055;50.870;4.316;2023-04-15T12:49:08;42.20;19.10
21787;DHT22;11055;50.870;4.316;2023-04-15T12:51:34;42.00;19.10
21787;DHT22;11055;50.870;4.316;2023-04-15T12:54:00;41.30;18.70
21787;DHT22;11055;50.870;4.316;2023-04-15T12:56:26;41.30;18.50
21787;DHT22;11055;50.870;4.316;2023-04-15T12:58:51;39.60;18.80
21787;DHT22;11055;50.870;4.316;2023-04-15T13:01:17;38.90;18.50
21787;DHT22;11055;50.870;4.316;2023-04-15T13:03:43;38.90;20.20
21787;DHT22;11055;50.870;4.316;2023-04-15T13:06:09;39.50;19.10
21787;DHT22;11055;50.870;4.316;2023-04-15T13:08:35;38.00;20.30
21787;DHT22;11055;50.870;4.316;2023-04-15T13:11:01;36.50;20.30
21787;DHT22;11055;50.870;4.316;2023-04-15T13:13:27;36.40;20.70
21787;DHT22;11055;50.870;4.316;2023-04-15T13:15:53;36.20;20.70
21787;DHT22;11055;50.870;4.316;2023-04-15T13:18:19;35.50;21.50
21787;DHT22;11055;50.870;4.316;2023-04-15T13:20:44;36.50;21.60
21787;DHT22;11055;50.870;4.316;2023-04-15T13:23:10;39.80;20.90
21787;DHT22;11055;50.870;4.316;2023-04-15T13:25:36;42.50;19.20
21787;DHT22;11055;50.870;4.316;2023-04-15T13:28:01;35.40;22.20
21787;DHT22;11055;50.870;4.316;2023-04-15T13:30:27;31.10;25.30
21787;DHT22;11055;50.870;4.316;2023-04-15T13:32:53;28.80;26.90
21787;DHT22;11055;50.870;4.316;2023-04-15T13:35:19;26.40;28.10
21787;DHT22;11055;50.870;4.316;2023-04-15T13:37:46;27.30;27.20
21787;DHT22;11055;50.870;4.316;2023-04-15T13:40:11;28.30;26.30
21787;DHT22;11055;50.870;4.316;2023-04-15T13:42:37;28.60;26.00
21787;DHT22;11055;50.870;4.316;2023-04-15T13:45:03;26.20;26.80
21787;DHT22;11055;50.870;4.316;2023-04-15T13:47:29;23.70;29.90
21787;DHT22;11055;50.870;4.316;2023-04-15T13:49:54;22.60;32.60
21787;DHT22;11055;50.870;4.316;2023-04-15T13:52:21;21.90;34.20
21787;DHT22;11055;50.870;4.316;2023-04-15T13:54:47;21.20;35.40
21787;DHT22;11055;50.870;4.316;2023-04-15T13:57:13;21.00;36.30
21787;DHT22;11055;50.870;4.316;2023-04-15T13:59:39;19.70;37.40
21787;DHT22;11055;50.870;4.316;2023-04-15T14:02:05;19.40;39.50
21787;DHT22;11055;50.870;4.316;2023-04-15T14:04:31;19.20;38.80
21787;DHT22;11055;50.870;4.316;2023-04-15T14:06:57;19.00;39.60
21787;DHT22;11055;50.870;4.316;2023-04-15T14:09:23;19.10;41.00
21787;DHT22;11055;50.870;4.316;2023-04-15T14:11:52;19.10;41.70
21787;DHT22;11055;50.870;4.316;2023-04-15T14:14:17;19.30;41.80
21787;DHT22;11055;50.870;4.316;2023-04-15T14:16:43;19.40;42.00
21787;DHT22;11055;50.870;4.316;2023-04-15T14:19:09;19.10;41.20
21787;DHT22;11055;50.870;4.316;2023-04-15T14:21:34;18.80;42.90
21787;DHT22;11055;50.870;4.316;2023-04-15T14:24:00;18.60;44.10
21787;DHT22;11055;50.870;4.316;2023-04-15T14:26:26;18.70;44.60
21787;DHT22;11055;50.870;4.316;2023-04-15T14:28:51;18.80;43.80
21787;DHT22;11055;50.870;4.316;2023-04-15T14:31:18;18.50;43.00
21787;DHT22;11055;50.870;4.316;2023-04-15T14:33:44;18.40;43.10
21787;DHT22;11055;50.870;4.316;2023-04-15T14:36:10;18.20;42.30
21787;DHT22;11055;50.870;4.316;2023-04-15T14:38:36;18.00;43.20
21787;DHT22;11055;50.870;4.316;2023-04-15T14:41:06;17.90;43.80
21787;DHT22;11055;50.870;4.316;2023-04-15T14:43:32;17.90;44.20
21787;DHT22;11055;50.870;4.316;2023-04-15T14:45:58;17.70;44.40
21787;DHT22;11055;50.870;4.316;2023-04-15T14:48:24;17.80;45.50
21787;DHT22;11055;50.870;4.316;2023-04-15T14:50:50;18.00;46.20
21787;DHT22;11055;50.870;4.316;2023-04-15T14:53:15;18.10;46.80
21787;DHT22;11055;50.870;4.316;2023-04-15T14:55:41;17.80;47.50
21787;DHT22;11055;50.870;4.316;2023-04-15T14:58:07;17.90;48.00
21787;DHT22;11055;50.870;4.316;2023-04-15T15:00:34;17.90;48.60
21787;DHT22;11055;50.870;4.316;2023-04-15T15:03:00;18.20;48.40
21787;DHT22;11055;50.870;4.316;2023-04-15T15:05:26;18.30;48.80
21787;DHT22;11055;50.870;4.316;2023-04-15T15:07:52;18.10;48.70
21787;DHT22;11055;50.870;4.316;2023-04-15T15:10:18;18.00;50.20
21787;DHT22;11055;50.870;4.316;2023-04-15T15:12:43;17.70;49.20
21787;DHT22;11055;50.870;4.316;2023-04-15T15:15:09;17.70;51.10
21787;DHT22;11055;50.870;4.316;2023-04-15T15:17:35;17.60;50.20
21787;DHT22;11055;50.870;4.316;2023-04-15T15:20:00;17.50;52.30
21787;DHT22;11055;50.870;4.316;2023-04-15T15:22:27;17.40;55.30
21787;DHT22;11055;50.870;4.316;2023-04-15T15:24:53;17.40;57.90
21787;DHT22;11055;50.870;4.316;2023-04-15T15:27:19;17.40;59.00
21787;DHT22;11055;50.870;4.316;2023-04-15T15:29:45;17.40;60.00
21787;DHT22;11055;50.870;4.316;2023-04-15T15:32:11;17.60;61.40
21787;DHT22;11055;50.870;4.316;2023-04-15T15:34:37;17.40;62.10
21787;DHT22;11055;50.870;4.316;2023-04-15T15:37:02;17.40;64.70
21787;DHT22;11055;50.870;4.316;2023-04-15T15:39:28;17.30;67.60
21787;DHT22;11055;50.870;4.316;2023-04-15T15:41:54;17.20;71.50
21787;DHT22;11055;50.870;4.316;2023-04-15T15:44:19;17.10;74.50
21787;DHT22;11055;50.870;4.316;2023-04-15T15:46:45;17.20;75.70
21787;DHT22;11055;50.870;4.316;2023-04-15T15:49:11;17.20;76.70